sensor_id;sensor_type;location;lat;lon;timestamp;pressure;altitude;pressure_sealevel;temperature;humidity
66479;BME280;53294;47.912;13.526;2023-02-21T00:01:40;96563.06;;;8.01;49.50
66479;BME280;53294;47.912;13.526;2023-02-21T00:04:26;96564.94;;;8.11;49.42
66479;BME280;53294;47.912;13.526;2023-02-21T00:07:12;96568.44;;;8.06;49.22
66479;BME280;53294;47.912;13.526;2023-02-21T00:09:57;96568.41;;;8.17;48.90
66479;BME280;53294;47.912;13.526;2023-02-21T00:12:42;96563.34;;;8.05;48.89
66479;BME280;53294;47.912;13.526;2023-02-21T00:15:27;96559.31;;;8.02;49.07
66479;BME280;53294;47.912;13.526;2023-02-21T00:18:13;96559.34;;;7.97;49.36
66479;BME280;53294;47.912;13.526;2023-02-21T00:20:58;96563.06;;;7.86;49.65
66479;BME280;53294;47.912;13.526;2023-02-21T00:23:43;96561.22;;;8.02;48.84
66479;BME280;53294;47.912;13.526;2023-02-21T00:26:29;96564.69;;;7.77;50.07
66479;BME280;53294;47.912;13.526;2023-02-21T00:29:14;96557.19;;;7.89;49.61
66479;BME280;53294;47.912;13.526;2023-02-21T00:31:59;96567.09;;;7.68;50.34
66479;BME280;53294;47.912;13.526;2023-02-21T00:34:44;96564.16;;;7.69;49.85
66479;BME280;53294;47.912;13.526;2023-02-21T00:37:29;96564.13;;;7.64;50.07
66479;BME280;53294;47.912;13.526;2023-02-21T00:40:15;96563.59;;;7.67;49.54
66479;BME280;53294;47.912;13.526;2023-02-21T00:43:01;96567.34;;;7.61;49.77
66479;BME280;53294;47.912;13.526;2023-02-21T00:45:46;96559.31;;;7.35;51.46
66479;BME280;53294;47.912;13.526;2023-02-21T00:48:31;96568.16;;;7.41;50.81
66479;BME280;53294;47.912;13.526;2023-02-21T00:51:17;96563.59;;;7.42;50.83
66479;BME280;53294;47.912;13.526;2023-02-21T00:54:02;96561.44;;;7.33;50.97
66479;BME280;53294;47.912;13.526;2023-02-21T00:56:47;96566.81;;;7.39;50.94
66479;BME280;53294;47.912;13.526;2023-02-21T00:59:33;96555.28;;;7.33;51.08
66479;BME280;53294;47.912;13.526;2023-02-21T01:02:17;96567.84;;;7.32;50.94
66479;BME280;53294;47.912;13.526;2023-02-21T01:05:03;96574.25;;;7.26;51.08
66479;BME280;53294;47.912;13.526;2023-02-21T01:07:49;96571.06;;;7.24;51.25
66479;BME280;53294;47.912;13.526;2023-02-21T01:10:34;96572.13;;;7.23;51.21
66479;BME280;53294;47.912;13.526;2023-02-21T01:13:19;96560.81;;;6.90;53.03
66479;BME280;53294;47.912;13.526;2023-02-21T01:16:06;96575.78;;;7.01;51.77
66479;BME280;53294;47.912;13.526;2023-02-21T01:18:51;96570.09;;;6.77;52.89
66479;BME280;53294;47.912;13.526;2023-02-21T01:21:37;96564.78;;;6.82;53.57
66479;BME280;53294;47.912;13.526;2023-02-21T01:24:22;96566.09;;;6.80;52.92
66479;BME280;53294;47.912;13.526;2023-02-21T01:27:08;96564.47;;;6.74;52.74
66479;BME280;53294;47.912;13.526;2023-02-21T01:29:53;96571.09;;;6.61;53.55
66479;BME280;53294;47.912;13.526;2023-02-21T01:32:38;96567.06;;;6.58;53.34
66479;BME280;53294;47.912;13.526;2023-02-21T01:35:23;96564.91;;;6.50;53.17
66479;BME280;53294;47.912;13.526;2023-02-21T01:38:09;96565.44;;;6.52;52.87
66479;BME280;53294;47.912;13.526;2023-02-21T01:40:54;96557.75;;;6.56;53.08
66479;BME280;53294;47.912;13.526;2023-02-21T01:43:56;96557.50;;;6.68;53.23
66479;BME280;53294;47.912;13.526;2023-02-21T01:46:42;96562.50;;;6.49;53.76
66479;BME280;53294;47.912;13.526;2023-02-21T01:49:28;96561.22;;;6.61;53.05
66479;BME280;53294;47.912;13.526;2023-02-21T01:52:16;96559.75;;;6.33;54.02
66479;BME280;53294;47.912;13.526;2023-02-21T01:55:02;96553.72;;;6.58;52.83
66479;BME280;53294;47.912;13.526;2023-02-21T01:57:48;96559.09;;;6.63;52.39
66479;BME280;53294;47.912;13.526;2023-02-21T02:00:34;96560.22;;;6.73;52.14
66479;BME280;53294;47.912;13.526;2023-02-21T02:03:20;96556.91;;;6.55;52.99
66479;BME280;53294;47.912;13.526;2023-02-21T02:06:08;96536.78;;;6.32;53.38
66479;BME280;53294;47.912;13.526;2023-02-21T02:08:53;96543.13;;;6.16;53.93
66479;BME280;53294;47.912;13.526;2023-02-21T02:12:26;96546.16;;;6.40;53.17
66479;BME280;53294;47.912;13.526;2023-02-21T02:43:24;96525.22;;;6.11;53.48
66479;BME280;53294;47.912;13.526;2023-02-21T02:48:33;96515.69;;;6.31;52.27
66479;BME280;53294;47.912;13.526;2023-02-21T02:51:06;96516.78;;;6.29;52.71
66479;BME280;53294;47.912;13.526;2023-02-21T02:53:34;96509.88;;;6.39;51.80
66479;BME280;53294;47.912;13.526;2023-02-21T02:56:04;96510.94;;;6.33;51.94
66479;BME280;53294;47.912;13.526;2023-02-21T03:12:50;96518.22;;;6.58;51.29
66479;BME280;53294;47.912;13.526;2023-02-21T03:15:40;96516.41;;;6.74;51.28
66479;BME280;53294;47.912;13.526;2023-02-21T03:20:52;96517.19;;;6.59;51.35
66479;BME280;53294;47.912;13.526;2023-02-21T03:23:21;96521.22;;;6.72;50.71
66479;BME280;53294;47.912;13.526;2023-02-21T03:25:50;96515.34;;;6.70;50.96
66479;BME280;53294;47.912;13.526;2023-02-21T03:28:19;96521.22;;;6.67;50.87
66479;BME280;53294;47.912;13.526;2023-02-21T03:30:48;96520.44;;;6.76;50.45
66479;BME280;53294;47.912;13.526;2023-02-21T03:33:17;96520.16;;;6.73;50.63
66479;BME280;53294;47.912;13.526;2023-02-21T03:35:43;96519.88;;;6.69;51.13
66479;BME280;53294;47.912;13.526;2023-02-21T03:38:10;96517.78;;;6.76;50.59
66479;BME280;53294;47.912;13.526;2023-02-21T03:40:37;96524.88;;;6.55;51.00
66479;BME280;53294;47.912;13.526;2023-02-21T03:43:04;96515.03;;;6.56;51.05
66479;BME280;53294;47.912;13.526;2023-02-21T03:45:34;96509.44;;;6.57;50.98
66479;BME280;53294;47.912;13.526;2023-02-21T03:48:02;96514.25;;;6.65;50.76
66479;BME280;53294;47.912;13.526;2023-02-21T03:50:29;96508.91;;;6.60;50.90
66479;BME280;53294;47.912;13.526;2023-02-21T03:52:56;96503.84;;;6.69;50.53
66479;BME280;53294;47.912;13.526;2023-02-21T03:55:22;96499.81;;;6.61;50.73
66479;BME280;53294;47.912;13.526;2023-02-21T03:57:49;96500.91;;;6.60;50.95
66479;BME280;53294;47.912;13.526;2023-02-21T04:00:16;96497.16;;;6.61;50.92
66479;BME280;53294;47.912;13.526;2023-02-21T04:02:43;96496.63;;;6.64;50.75
66479;BME280;53294;47.912;13.526;2023-02-21T04:05:10;96497.97;;;6.67;50.68
66479;BME280;53294;47.912;13.526;2023-02-21T04:07:37;96498.81;;;6.73;50.78
66479;BME280;53294;47.912;13.526;2023-02-21T04:10:04;96494.22;;;6.63;50.90
66479;BME280;53294;47.912;13.526;2023-02-21T04:12:30;96497.19;;;6.72;50.95
66479;BME280;53294;47.912;13.526;2023-02-21T04:14:57;96498.81;;;6.78;50.91
66479;BME280;53294;47.912;13.526;2023-02-21T04:17:24;96502.53;;;6.82;50.69
66479;BME280;53294;47.912;13.526;2023-02-21T04:19:51;96500.44;;;6.94;50.35
66479;BME280;53294;47.912;13.526;2023-02-21T04:22:17;96497.81;;;6.99;50.20
66479;BME280;53294;47.912;13.526;2023-02-21T04:24:44;96492.16;;;6.96;50.20
66479;BME280;53294;47.912;13.526;2023-02-21T04:27:14;96490.81;;;6.88;50.67
66479;BME280;53294;47.912;13.526;2023-02-21T04:29:41;96496.44;;;6.92;50.40
66479;BME280;53294;47.912;13.526;2023-02-21T04:32:09;96499.91;;;6.97;50.22
66479;BME280;53294;47.912;13.526;2023-02-21T04:34:36;96489.78;;;6.99;50.23
66479;BME280;53294;47.912;13.526;2023-02-21T04:37:03;96496.16;;;6.88;50.55
66479;BME280;53294;47.912;13.526;2023-02-21T04:39:29;96496.19;;;6.98;50.33
66479;BME280;53294;47.912;13.526;2023-02-21T04:41:56;96496.75;;;7.11;50.10
66479;BME280;53294;47.912;13.526;2023-02-21T04:44:23;96499.84;;;6.67;51.25
66479;BME280;53294;47.912;13.526;2023-02-21T04:46:50;96496.66;;;6.70;51.36
66479;BME280;53294;47.912;13.526;2023-02-21T04:49:17;96498.00;;;6.72;51.19
66479;BME280;53294;47.912;13.526;2023-02-21T04:51:44;96490.81;;;6.78;50.97
66479;BME280;53294;47.912;13.526;2023-02-21T04:54:10;96498.56;;;6.85;50.39
66479;BME280;53294;47.912;13.526;2023-02-21T04:56:39;96496.72;;;6.95;50.07
66479;BME280;53294;47.912;13.526;2023-02-21T04:59:06;96493.53;;;7.04;49.99
66479;BME280;53294;47.912;13.526;2023-02-21T05:01:33;96480.44;;;7.02;49.91
66479;BME280;53294;47.912;13.526;2023-02-21T05:03:59;96484.44;;;7.10;49.51
66479;BME280;53294;47.912;13.526;2023-02-21T05:06:28;96478.84;;;7.22;49.19
66479;BME280;53294;47.912;13.526;2023-02-21T05:08:56;96482.31;;;7.17;49.38
66479;BME280;53294;47.912;13.526;2023-02-21T05:11:23;96478.03;;;7.11;49.45
66479;BME280;53294;47.912;13.526;2023-02-21T05:13:50;96487.13;;;7.10;49.33
66479;BME280;53294;47.912;13.526;2023-02-21T05:16:18;96476.72;;;7.18;49.00
66479;BME280;53294;47.912;13.526;2023-02-21T05:18:46;96473.75;;;7.10;49.43
66479;BME280;53294;47.912;13.526;2023-02-21T05:21:14;96466.03;;;7.13;49.10
66479;BME280;53294;47.912;13.526;2023-02-21T05:23:42;96471.91;;;7.10;49.16
66479;BME280;53294;47.912;13.526;2023-02-21T05:26:24;96468.91;;;6.86;49.73
66479;BME280;53294;47.912;13.526;2023-02-21T05:28:51;96465.19;;;6.87;49.75
66479;BME280;53294;47.912;13.526;2023-02-21T05:31:18;96471.03;;;6.79;49.90
66479;BME280;53294;47.912;13.526;2023-02-21T05:33:45;96469.44;;;6.83;49.55
66479;BME280;53294;47.912;13.526;2023-02-21T05:36:11;96471.72;;;6.38;51.22
66479;BME280;53294;47.912;13.526;2023-02-21T05:38:46;96478.47;;;6.56;50.66
66479;BME280;53294;47.912;13.526;2023-02-21T05:41:14;96475.16;;;6.34;51.10
66479;BME280;53294;47.912;13.526;2023-02-21T05:43:44;96474.63;;;6.32;51.15
66479;BME280;53294;47.912;13.526;2023-02-21T05:46:28;96471.50;;;6.50;50.94
66479;BME280;53294;47.912;13.526;2023-02-21T05:48:56;96468.09;;;6.02;52.16
66479;BME280;53294;47.912;13.526;2023-02-21T05:51:24;96470.91;;;6.38;50.95
66479;BME280;53294;47.912;13.526;2023-02-21T05:53:51;96478.00;;;6.17;51.49
66479;BME280;53294;47.912;13.526;2023-02-21T05:56:18;96474.03;;;6.19;51.06
66479;BME280;53294;47.912;13.526;2023-02-21T05:58:45;96475.13;;;6.23;51.09
66479;BME280;53294;47.912;13.526;2023-02-21T06:01:12;96469.09;;;5.96;51.88
66479;BME280;53294;47.912;13.526;2023-02-21T06:03:40;96470.22;;;6.00;51.68
66479;BME280;53294;47.912;13.526;2023-02-21T06:06:06;96474.94;;;5.92;51.88
66479;BME280;53294;47.912;13.526;2023-02-21T06:08:41;96479.69;;;5.85;52.45
66479;BME280;53294;47.912;13.526;2023-02-21T06:11:08;96471.53;;;5.97;51.73
66479;BME280;53294;47.912;13.526;2023-02-21T06:13:35;96469.75;;;6.13;51.06
66479;BME280;53294;47.912;13.526;2023-02-21T06:16:02;96485.25;;;5.41;54.37
66479;BME280;53294;47.912;13.526;2023-02-21T06:18:28;96486.44;;;5.55;53.37
66479;BME280;53294;47.912;13.526;2023-02-21T06:20:55;96473.22;;;5.76;52.30
66479;BME280;53294;47.912;13.526;2023-02-21T06:23:22;96483.34;;;5.74;52.56
66479;BME280;53294;47.912;13.526;2023-02-21T06:25:48;96480.28;;;5.92;52.01
66479;BME280;53294;47.912;13.526;2023-02-21T06:28:15;96486.63;;;5.81;51.77
66479;BME280;53294;47.912;13.526;2023-02-21T06:30:42;96489.31;;;5.91;51.61
66479;BME280;53294;47.912;13.526;2023-02-21T06:33:08;96489.81;;;5.83;52.11
66479;BME280;53294;47.912;13.526;2023-02-21T06:35:35;96489.97;;;5.66;52.70
66479;BME280;53294;47.912;13.526;2023-02-21T06:38:02;96487.16;;;5.83;51.92
66479;BME280;53294;47.912;13.526;2023-02-21T06:40:28;96487.28;;;5.99;51.90
66479;BME280;53294;47.912;13.526;2023-02-21T06:42:55;96481.94;;;5.99;51.75
66479;BME280;53294;47.912;13.526;2023-02-21T06:45:22;96493.66;;;5.98;51.61
66479;BME280;53294;47.912;13.526;2023-02-21T06:47:48;96493.16;;;6.06;51.15
66479;BME280;53294;47.912;13.526;2023-02-21T06:50:15;96500.66;;;6.09;51.21
66479;BME280;53294;47.912;13.526;2023-02-21T06:52:42;96503.28;;;6.04;51.50
66479;BME280;53294;47.912;13.526;2023-02-21T06:55:08;96498.91;;;5.87;52.33
66479;BME280;53294;47.912;13.526;2023-02-21T06:57:35;96507.31;;;5.69;53.71
66479;BME280;53294;47.912;13.526;2023-02-21T07:00:03;96501.00;;;5.85;52.60
66479;BME280;53294;47.912;13.526;2023-02-21T07:02:30;96511.16;;;5.88;52.90
66479;BME280;53294;47.912;13.526;2023-02-21T07:04:57;96512.69;;;5.79;54.26
66479;BME280;53294;47.912;13.526;2023-02-21T07:07:24;96507.22;;;5.58;54.21
66479;BME280;53294;47.912;13.526;2023-02-21T07:09:50;96510.38;;;5.88;53.32
66479;BME280;53294;47.912;13.526;2023-02-21T07:12:17;96507.31;;;6.06;53.00
66479;BME280;53294;47.912;13.526;2023-02-21T07:14:43;96507.88;;;6.14;52.33
66479;BME280;53294;47.912;13.526;2023-02-21T07:17:10;96507.66;;;6.20;52.81
66479;BME280;53294;47.912;13.526;2023-02-21T07:19:37;96512.50;;;6.34;52.38
66479;BME280;53294;47.912;13.526;2023-02-21T07:22:03;96516.81;;;6.40;52.71
66479;BME280;53294;47.912;13.526;2023-02-21T07:24:30;96525.91;;;6.44;53.04
66479;BME280;53294;47.912;13.526;2023-02-21T07:26:57;96514.72;;;6.47;52.53
66479;BME280;53294;47.912;13.526;2023-02-21T07:29:24;96516.63;;;6.57;52.80
66479;BME280;53294;47.912;13.526;2023-02-21T07:31:51;96515.56;;;6.63;52.61
66479;BME280;53294;47.912;13.526;2023-02-21T07:34:18;96523.06;;;6.61;52.65
66479;BME280;53294;47.912;13.526;2023-02-21T07:36:45;96529.44;;;6.55;53.34
66479;BME280;53294;47.912;13.526;2023-02-21T07:39:12;96524.16;;;6.75;52.81
66479;BME280;53294;47.912;13.526;2023-02-21T07:41:38;96518.56;;;6.82;53.46
66479;BME280;53294;47.912;13.526;2023-02-21T07:44:05;96520.75;;;6.90;53.48
66479;BME280;53294;47.912;13.526;2023-02-21T07:46:33;96520.75;;;6.90;53.46
66479;BME280;53294;47.912;13.526;2023-02-21T07:49:00;96521.56;;;7.01;53.36
66479;BME280;53294;47.912;13.526;2023-02-21T07:51:28;96518.09;;;6.95;54.83
66479;BME280;53294;47.912;13.526;2023-02-21T07:53:55;96524.25;;;7.06;54.17
66479;BME280;53294;47.912;13.526;2023-02-21T07:56:22;96523.47;;;7.16;54.07
66479;BME280;53294;47.912;13.526;2023-02-21T07:58:49;96520.56;;;7.28;54.14
66479;BME280;53294;47.912;13.526;2023-02-21T08:01:16;96518.69;;;7.44;53.88
66479;BME280;53294;47.912;13.526;2023-02-21T08:03:43;96518.69;;;7.44;54.88
66479;BME280;53294;47.912;13.526;2023-02-21T08:06:10;96520.28;;;7.24;58.07
66479;BME280;53294;47.912;13.526;2023-02-21T08:08:37;96523.53;;;7.52;58.32
66479;BME280;53294;47.912;13.526;2023-02-21T08:11:03;96518.13;;;7.98;56.10
66479;BME280;53294;47.912;13.526;2023-02-21T08:13:30;96521.84;;;8.07;57.79
66479;BME280;53294;47.912;13.526;2023-02-21T08:15:57;96511.06;;;8.38;54.49
66479;BME280;53294;47.912;13.526;2023-02-21T08:18:24;96520.13;;;8.63;54.82
66479;BME280;53294;47.912;13.526;2023-02-21T08:20:52;96510.88;;;9.34;51.76
66479;BME280;53294;47.912;13.526;2023-02-21T08:23:20;96512.50;;;9.70;50.16
66479;BME280;53294;47.912;13.526;2023-02-21T08:25:47;96510.53;;;10.10;48.78
66479;BME280;53294;47.912;13.526;2023-02-21T08:28:14;96512.16;;;10.35;48.22
66479;BME280;53294;47.912;13.526;2023-02-21T08:30:41;96510.97;;;10.71;47.20
66479;BME280;53294;47.912;13.526;2023-02-21T08:33:08;96508.50;;;10.93;46.50
66479;BME280;53294;47.912;13.526;2023-02-21T08:35:35;96496.25;;;11.25;46.11
66479;BME280;53294;47.912;13.526;2023-02-21T08:38:02;96508.34;;;11.61;44.88
66479;BME280;53294;47.912;13.526;2023-02-21T08:40:30;96510.22;;;11.60;44.72
66479;BME280;53294;47.912;13.526;2023-02-21T08:42:58;96511.25;;;11.97;43.65
66479;BME280;53294;47.912;13.526;2023-02-21T08:45:26;96512.78;;;12.03;44.06
66479;BME280;53294;47.912;13.526;2023-02-21T08:47:53;96516.91;;;12.29;43.57
66479;BME280;53294;47.912;13.526;2023-02-21T08:50:22;96514.50;;;12.27;44.67
66479;BME280;53294;47.912;13.526;2023-02-21T08:52:49;96510.69;;;12.14;44.82
66479;BME280;53294;47.912;13.526;2023-02-21T08:55:17;96516.91;;;12.43;43.88
66479;BME280;53294;47.912;13.526;2023-02-21T08:57:47;96520.13;;;12.72;43.81
66479;BME280;53294;47.912;13.526;2023-02-21T09:00:16;96522.88;;;12.95;43.64
66479;BME280;53294;47.912;13.526;2023-02-21T09:02:43;96524.84;;;13.03;43.14
66479;BME280;53294;47.912;13.526;2023-02-21T09:05:13;96528.66;;;13.16;41.19
66479;BME280;53294;47.912;13.526;2023-02-21T09:07:40;96532.88;;;13.31;41.42
66479;BME280;53294;47.912;13.526;2023-02-21T09:10:09;96519.97;;;13.05;42.52
66479;BME280;53294;47.912;13.526;2023-02-21T09:12:37;96538.22;;;13.22;42.00
66479;BME280;53294;47.912;13.526;2023-02-21T09:15:05;96537.19;;;13.32;42.16
66479;BME280;53294;47.912;13.526;2023-02-21T09:17:32;96531.78;;;13.46;42.22
66479;BME280;53294;47.912;13.526;2023-02-21T09:20:01;96526.06;;;13.70;42.53
66479;BME280;53294;47.912;13.526;2023-02-21T09:22:30;96521.22;;;13.81;41.15
66479;BME280;53294;47.912;13.526;2023-02-21T09:24:57;96522.47;;;14.29;39.64
66479;BME280;53294;47.912;13.526;2023-02-21T09:27:24;96524.22;;;14.25;40.16
66479;BME280;53294;47.912;13.526;2023-02-21T09:30:17;96516.41;;;14.23;40.61
66479;BME280;53294;47.912;13.526;2023-02-21T09:32:46;96512.03;;;14.45;40.45
66479;BME280;53294;47.912;13.526;2023-02-21T09:35:14;96510.78;;;14.82;38.05
66479;BME280;53294;47.912;13.526;2023-02-21T09:37:42;96506.50;;;14.99;36.34
66479;BME280;53294;47.912;13.526;2023-02-21T09:40:20;96510.97;;;15.03;36.60
66479;BME280;53294;47.912;13.526;2023-02-21T09:42:52;96515.44;;;15.17;36.96
66479;BME280;53294;47.912;13.526;2023-02-21T09:45:20;96514.16;;;15.14;35.89
66479;BME280;53294;47.912;13.526;2023-02-21T09:47:50;96507.81;;;15.19;36.25
66479;BME280;53294;47.912;13.526;2023-02-21T09:50:24;96515.59;;;15.20;35.99
66479;BME280;53294;47.912;13.526;2023-02-21T09:52:56;96517.38;;;15.34;36.28
66479;BME280;53294;47.912;13.526;2023-02-21T09:55:30;96511.78;;;15.30;35.58
66479;BME280;53294;47.912;13.526;2023-02-21T09:57:57;96511.94;;;15.42;36.51
66479;BME280;53294;47.912;13.526;2023-02-21T10:00:35;96510.19;;;15.73;36.08
66479;BME280;53294;47.912;13.526;2023-02-21T10:03:23;96513.72;;;15.82;34.91
66479;BME280;53294;47.912;13.526;2023-02-21T10:09:02;96514.28;;;16.14;35.28
66479;BME280;53294;47.912;13.526;2023-02-21T10:19:58;96518.00;;;16.48;33.23
66479;BME280;53294;47.912;13.526;2023-02-21T10:22:30;96515.03;;;16.71;33.63
66479;BME280;53294;47.912;13.526;2023-02-21T10:25:00;96521.25;;;16.32;34.64
66479;BME280;53294;47.912;13.526;2023-02-21T10:27:30;96516.69;;;16.54;33.79
66479;BME280;53294;47.912;13.526;2023-02-21T10:30:06;96520.16;;;16.63;33.21
66479;BME280;53294;47.912;13.526;2023-02-21T10:32:36;96514.38;;;16.74;33.05
66479;BME280;53294;47.912;13.526;2023-02-21T10:35:03;96516.72;;;16.84;33.95
66479;BME280;53294;47.912;13.526;2023-02-21T10:37:38;96515.59;;;17.15;32.38
66479;BME280;53294;47.912;13.526;2023-02-21T10:40:15;96513.44;;;16.69;33.05
66479;BME280;53294;47.912;13.526;2023-02-21T10:42:51;96505.41;;;16.82;32.71
66479;BME280;53294;47.912;13.526;2023-02-21T10:45:29;96502.47;;;16.66;33.53
66479;BME280;53294;47.912;13.526;2023-02-21T10:48:06;96488.25;;;16.99;32.10
66479;BME280;53294;47.912;13.526;2023-02-21T10:50:49;96495.06;;;16.75;33.39
66479;BME280;53294;47.912;13.526;2023-02-21T10:53:27;96487.31;;;16.95;31.92
66479;BME280;53294;47.912;13.526;2023-02-21T10:58:55;96489.47;;;17.31;32.58
66479;BME280;53294;47.912;13.526;2023-02-21T11:04:01;96485.59;;;17.74;32.86
66479;BME280;53294;47.912;13.526;2023-02-21T11:08:57;96469.75;;;18.10;31.89
66479;BME280;53294;47.912;13.526;2023-02-21T11:11:40;96466.03;;;18.27;31.43
66479;BME280;53294;47.912;13.526;2023-02-21T11:16:43;96462.28;;;18.32;31.24
66479;BME280;53294;47.912;13.526;2023-02-21T11:19:13;96462.31;;;18.44;30.54
66479;BME280;53294;47.912;13.526;2023-02-21T11:21:42;96454.72;;;18.37;31.52
66479;BME280;53294;47.912;13.526;2023-02-21T11:24:12;96451.75;;;18.79;32.00
66479;BME280;53294;47.912;13.526;2023-02-21T11:26:50;96444.28;;;19.01;30.88
66479;BME280;53294;47.912;13.526;2023-02-21T11:29:21;96440.59;;;19.22;31.15
66479;BME280;53294;47.912;13.526;2023-02-21T11:31:52;96437.63;;;18.74;30.45
66479;BME280;53294;47.912;13.526;2023-02-21T11:34:19;96438.16;;;18.42;29.94
66479;BME280;53294;47.912;13.526;2023-02-21T11:36:47;96425.81;;;18.94;30.47
66479;BME280;53294;47.912;13.526;2023-02-21T11:39:31;96422.00;;;19.24;29.44
66479;BME280;53294;47.912;13.526;2023-02-21T11:42:02;96423.28;;;19.42;28.52
66479;BME280;53294;47.912;13.526;2023-02-21T11:44:32;96418.41;;;19.64;29.05
66479;BME280;53294;47.912;13.526;2023-02-21T11:47:11;96413.75;;;19.93;29.25
66479;BME280;53294;47.912;13.526;2023-02-21T11:52:12;96402.03;;;20.24;28.98
66479;BME280;53294;47.912;13.526;2023-02-21T11:54:40;96409.84;;;19.49;29.19
66479;BME280;53294;47.912;13.526;2023-02-21T12:22:34;96360.75;;;22.44;26.30
66479;BME280;53294;47.912;13.526;2023-02-21T12:28:03;96344.34;;;22.74;25.06
66479;BME280;53294;47.912;13.526;2023-02-21T12:44:12;96323.94;;;22.99;24.80
66479;BME280;53294;47.912;13.526;2023-02-21T12:47:20;96328.13;;;22.89;24.03
66479;BME280;53294;47.912;13.526;2023-02-21T12:52:57;96330.00;;;22.04;27.13
66479;BME280;53294;47.912;13.526;2023-02-21T12:55:40;96311.75;;;22.96;26.83
66479;BME280;53294;47.912;13.526;2023-02-21T12:58:30;96315.72;;;22.99;26.26
66479;BME280;53294;47.912;13.526;2023-02-21T13:01:17;96313.09;;;23.43;27.86
66479;BME280;53294;47.912;13.526;2023-02-21T13:03:54;96304.63;;;23.56;25.77
66479;BME280;53294;47.912;13.526;2023-02-21T13:11:45;96297.88;;;23.91;25.04
66479;BME280;53294;47.912;13.526;2023-02-21T13:14:22;96290.69;;;23.75;24.18
66479;BME280;53294;47.912;13.526;2023-02-21T13:16:51;96297.66;;;23.24;25.94
66479;BME280;53294;47.912;13.526;2023-02-21T13:19:19;96292.38;;;23.08;25.21
66479;BME280;53294;47.912;13.526;2023-02-21T13:24:33;96277.66;;;23.24;25.02
66479;BME280;53294;47.912;13.526;2023-02-21T13:30:56;96269.78;;;23.15;25.06
66479;BME280;53294;47.912;13.526;2023-02-21T13:33:02;96258.22;;;23.02;24.46
66479;BME280;53294;47.912;13.526;2023-02-21T13:35:32;96261.97;;;21.99;25.50
66479;BME280;53294;47.912;13.526;2023-02-21T13:38:00;96265.38;;;21.66;26.84
66479;BME280;53294;47.912;13.526;2023-02-21T13:40:52;96261.34;;;22.10;27.18
66479;BME280;53294;47.912;13.526;2023-02-21T13:43:23;96255.66;;;22.49;26.23
66479;BME280;53294;47.912;13.526;2023-02-21T13:45:51;96256.94;;;22.28;26.38
66479;BME280;53294;47.912;13.526;2023-02-21T13:48:26;96253.34;;;22.24;25.61
66479;BME280;53294;47.912;13.526;2023-02-21T13:50:58;96245.50;;;22.22;26.31
66479;BME280;53294;47.912;13.526;2023-02-21T13:53:30;96245.44;;;21.92;26.23
66479;BME280;53294;47.912;13.526;2023-02-21T14:00:56;96242.00;;;22.22;26.40
66479;BME280;53294;47.912;13.526;2023-02-21T14:03:38;96236.19;;;22.27;26.52
66479;BME280;53294;47.912;13.526;2023-02-21T14:08:43;96237.16;;;22.12;26.12
66479;BME280;53294;47.912;13.526;2023-02-21T14:11:13;96232.25;;;21.98;26.81
66479;BME280;53294;47.912;13.526;2023-02-21T14:13:54;96236.50;;;21.68;26.65
66479;BME280;53294;47.912;13.526;2023-02-21T14:16:25;96240.16;;;21.53;27.91
66479;BME280;53294;47.912;13.526;2023-02-21T14:23:58;96239.25;;;21.03;28.59
66479;BME280;53294;47.912;13.526;2023-02-21T14:26:45;96240.53;;;21.09;27.75
66479;BME280;53294;47.912;13.526;2023-02-21T14:37:26;96234.16;;;20.62;28.88
66479;BME280;53294;47.912;13.526;2023-02-21T14:40:04;96230.34;;;20.47;29.66
66479;BME280;53294;47.912;13.526;2023-02-21T14:46:01;96227.19;;;20.45;29.97
66479;BME280;53294;47.912;13.526;2023-02-21T14:48:41;96223.19;;;20.39;29.71
66479;BME280;53294;47.912;13.526;2023-02-21T14:54:28;96222.31;;;20.35;31.36
66479;BME280;53294;47.912;13.526;2023-02-21T14:59:58;96210.84;;;20.65;30.88
66479;BME280;53294;47.912;13.526;2023-02-21T15:05:35;96208.25;;;20.72;29.48
66479;BME280;53294;47.912;13.526;2023-02-21T15:10:32;96190.97;;;21.07;28.74
66479;BME280;53294;47.912;13.526;2023-02-21T15:13:05;96193.75;;;20.48;29.95
66479;BME280;53294;47.912;13.526;2023-02-21T15:15:38;96188.09;;;20.76;28.34
66479;BME280;53294;47.912;13.526;2023-02-21T15:18:10;96195.75;;;20.90;28.63
66479;BME280;53294;47.912;13.526;2023-02-21T15:20:41;96193.03;;;20.71;29.13
66479;BME280;53294;47.912;13.526;2023-02-21T15:23:20;96193.94;;;20.78;29.06
66479;BME280;53294;47.912;13.526;2023-02-21T15:25:59;96182.69;;;20.41;29.32
66479;BME280;53294;47.912;13.526;2023-02-21T15:28:29;96188.56;;;20.62;29.65
66479;BME280;53294;47.912;13.526;2023-02-21T15:31:08;96185.41;;;20.60;30.21
66479;BME280;53294;47.912;13.526;2023-02-21T15:33:38;96184.63;;;20.79;29.64
66479;BME280;53294;47.912;13.526;2023-02-21T15:36:21;96185.25;;;20.92;29.35
66479;BME280;53294;47.912;13.526;2023-02-21T15:38:52;96180.06;;;21.07;29.34
66479;BME280;53294;47.912;13.526;2023-02-21T15:41:28;96184.81;;;20.90;29.69
66479;BME280;53294;47.912;13.526;2023-02-21T15:44:12;96184.97;;;20.19;30.55
66479;BME280;53294;47.912;13.526;2023-02-21T15:46:45;96190.53;;;19.87;30.75
66479;BME280;53294;47.912;13.526;2023-02-21T15:49:36;96185.19;;;19.43;30.80
66479;BME280;53294;47.912;13.526;2023-02-21T15:52:04;96191.97;;;19.17;32.15
66479;BME280;53294;47.912;13.526;2023-02-21T15:54:35;96185.41;;;19.70;31.75
66479;BME280;53294;47.912;13.526;2023-02-21T15:59:36;96189.47;;;19.92;31.81
66479;BME280;53294;47.912;13.526;2023-02-21T16:02:14;96178.09;;;20.45;31.85
66479;BME280;53294;47.912;13.526;2023-02-21T16:04:46;96174.50;;;20.60;31.69
66479;BME280;53294;47.912;13.526;2023-02-21T16:09:56;96170.22;;;19.69;31.35
66479;BME280;53294;47.912;13.526;2023-02-21T16:12:36;96167.63;;;19.57;32.70
66479;BME280;53294;47.912;13.526;2023-02-21T16:15:07;96171.84;;;19.38;33.03